Time;durP1;ratioP1;P1;durP2;ratioP2;P2;SDS_P1;SDS_P2;PMS_P1;PMS_P2;Temp;Humidity;BMP_temperature;BMP_pressure;BME280_temperature;BME280_humidity;BME280_pressure;Samples;Min_cycle;Max_cycle;Signal;HPM_P1;HPM_P2
2022/07/07 00:00:07;;;;;;;7.70;2.88;;;20.50;99.90;;;;;;5097766;28;20060;-74
2022/07/07 00:02:33;;;;;;;9.10;3.00;;;20.40;99.90;;;;;;5090851;28;20027;-73
2022/07/07 00:05:00;;;;;;;7.68;3.20;;;20.40;99.90;;;;;;5088619;28;20024;-74
2022/07/07 00:07:25;;;;;;;11.48;3.00;;;20.30;99.90;;;;;;5090184;28;20021;-74
2022/07/07 00:09:51;;;;;;;6.03;2.50;;;20.30;99.90;;;;;;5084856;28;20043;-73
2022/07/07 00:12:18;;;;;;;6.20;2.63;;;20.30;99.90;;;;;;5081076;28;20055;-73
2022/07/07 00:14:44;;;;;;;10.25;2.83;;;20.30;99.90;;;;;;5092783;28;20024;-73
2022/07/07 00:17:10;;;;;;;13.02;2.72;;;20.20;99.90;;;;;;5086092;28;20024;-73
2022/07/07 00:19:36;;;;;;;9.07;3.47;;;20.10;99.90;;;;;;5088159;28;20077;-74
2022/07/07 00:22:02;;;;;;;15.52;3.08;;;20.10;99.90;;;;;;5088349;28;20028;-74
2022/07/07 00:24:28;;;;;;;6.85;2.95;;;20.10;99.90;;;;;;5089908;28;20095;-74
2022/07/07 00:26:54;;;;;;;4.55;2.75;;;20.00;99.90;;;;;;5092077;28;20535;-74
2022/07/07 00:29:20;;;;;;;6.70;2.78;;;19.90;99.90;;;;;;5089718;28;20050;-74
2022/07/07 00:31:46;;;;;;;7.00;3.03;;;19.90;99.90;;;;;;5095985;28;20047;-74
2022/07/07 00:34:12;;;;;;;5.35;3.22;;;19.90;99.90;;;;;;5092079;28;20036;-74
2022/07/07 00:36:39;;;;;;;5.28;3.35;;;19.90;99.90;;;;;;5077321;28;20057;-74
2022/07/07 00:39:06;;;;;;;5.70;3.53;;;19.90;99.90;;;;;;5081628;28;20020;-74
2022/07/07 00:41:33;;;;;;;10.18;3.30;;;19.80;99.90;;;;;;5080816;28;20202;-74
2022/07/07 00:43:58;;;;;;;4.63;2.70;;;19.80;99.90;;;;;;5085708;28;20111;-74
2022/07/07 00:46:27;;;;;;;10.32;3.50;;;19.80;99.90;;;;;;5082670;28;20052;-73
2022/07/07 00:48:53;;;;;;;9.02;2.70;;;19.70;99.90;;;;;;5087987;28;20404;-74
2022/07/07 00:51:19;;;;;;;4.30;1.95;;;19.70;99.90;;;;;;5085432;28;20032;-74
2022/07/07 00:53:45;;;;;;;6.35;2.60;;;19.70;99.90;;;;;;5088392;28;20115;-74
2022/07/07 00:56:11;;;;;;;17.45;2.97;;;19.70;99.90;;;;;;5087879;28;20114;-74
2022/07/07 00:58:37;;;;;;;7.28;2.50;;;19.60;99.90;;;;;;5089691;28;20536;-73
2022/07/07 01:01:03;;;;;;;9.15;2.75;;;19.60;99.90;;;;;;5092480;28;20107;-74
2022/07/07 01:03:30;;;;;;;5.97;3.10;;;19.60;99.90;;;;;;5092903;28;20057;-73
2022/07/07 01:05:57;;;;;;;5.78;2.55;;;19.50;99.90;;;;;;5093414;28;20024;-73
2022/07/07 01:08:23;;;;;;;5.57;2.65;;;19.50;99.90;;;;;;5092894;28;20433;-73
2022/07/07 01:10:49;;;;;;;5.65;3.20;;;19.50;99.90;;;;;;5093846;28;20016;-74
2022/07/07 01:13:15;;;;;;;6.93;3.00;;;19.40;99.90;;;;;;5086549;28;20039;-74
2022/07/07 01:15:41;;;;;;;10.00;3.33;;;19.40;99.90;;;;;;5081376;28;20036;-74
2022/07/07 01:18:06;;;;;;;6.55;3.10;;;19.40;99.90;;;;;;5088169;28;20035;-73
2022/07/07 01:20:33;;;;;;;6.03;3.40;;;19.30;99.90;;;;;;5092905;28;20052;-74
2022/07/07 01:22:59;;;;;;;7.00;3.55;;;19.30;99.90;;;;;;5090741;28;20070;-73
2022/07/07 01:25:25;;;;;;;7.75;3.03;;;19.20;99.90;;;;;;5089556;28;20069;-73
2022/07/07 01:27:51;;;;;;;5.90;3.20;;;19.20;99.90;;;;;;5091329;28;20028;-73
2022/07/07 01:30:18;;;;;;;9.18;3.28;;;19.20;99.90;;;;;;5094754;28;20492;-73
2022/07/07 01:32:44;;;;;;;5.70;2.97;;;19.10;99.90;;;;;;5093389;28;20028;-73
2022/07/07 01:35:10;;;;;;;5.72;3.38;;;19.10;99.90;;;;;;5084512;28;20028;-73
2022/07/07 01:37:37;;;;;;;7.05;3.10;;;19.00;99.90;;;;;;5090610;28;20028;-73
2022/07/07 01:40:04;;;;;;;9.68;3.70;;;19.00;99.90;;;;;;5079620;28;20025;-73
2022/07/07 01:42:30;;;;;;;8.45;3.40;;;19.00;99.90;;;;;;5083241;28;20032;-73
2022/07/07 01:44:56;;;;;;;4.80;3.28;;;19.00;99.90;;;;;;5080673;28;20013;-73
2022/07/07 01:47:24;;;;;;;12.25;3.60;;;18.90;99.90;;;;;;5088784;28;20043;-73
2022/07/07 01:49:50;;;;;;;8.93;3.97;;;18.90;99.90;;;;;;5083390;28;20473;-73
2022/07/07 01:52:16;;;;;;;5.97;3.45;;;18.80;99.90;;;;;;5083470;28;20052;-73
2022/07/07 01:54:42;;;;;;;7.45;3.28;;;18.80;99.90;;;;;;5087165;28;20043;-73
2022/07/07 01:57:08;;;;;;;7.28;3.53;;;18.70;99.90;;;;;;5092456;28;20454;-72
2022/07/07 01:59:35;;;;;;;9.18;4.07;;;18.70;99.90;;;;;;5096514;28;20012;-73
2022/07/07 02:02:01;;;;;;;7.47;3.05;;;18.60;99.90;;;;;;5091591;28;20146;-73
2022/07/07 02:04:27;;;;;;;6.00;3.40;;;18.60;99.90;;;;;;5085742;28;20105;-73
2022/07/07 02:06:53;;;;;;;6.75;3.50;;;18.60;99.90;;;;;;5092789;28;20147;-72
2022/07/07 02:09:19;;;;;;;6.78;3.78;;;18.50;99.90;;;;;;5079335;28;20027;-73
2022/07/07 02:11:46;;;;;;;5.82;3.25;;;18.50;99.90;;;;;;5085395;28;20020;-73
2022/07/07 02:14:12;;;;;;;6.30;3.90;;;18.50;99.90;;;;;;5089400;28;20024;-73
2022/07/07 02:16:37;;;;;;;6.72;3.63;;;18.50;99.90;;;;;;5089926;28;20387;-73
2022/07/07 02:19:06;;;;;;;8.98;3.45;;;18.50;99.90;;;;;;5084071;28;20021;-73
2022/07/07 02:21:32;;;;;;;4.28;3.10;;;18.40;99.90;;;;;;5083528;28;20027;-73
2022/07/07 02:23:59;;;;;;;6.53;3.45;;;18.40;99.90;;;;;;5087635;28;20046;-73
2022/07/07 02:26:25;;;;;;;5.57;3.60;;;18.30;99.90;;;;;;5093103;28;20039;-73
2022/07/07 02:28:51;;;;;;;7.72;3.55;;;18.30;99.90;;;;;;5091049;28;20016;-73
2022/07/07 02:31:18;;;;;;;12.00;3.92;;;18.30;99.90;;;;;;5094634;28;20074;-73
2022/07/07 02:33:45;;;;;;;8.70;4.20;;;18.30;99.90;;;;;;5095454;28;20024;-73
2022/07/07 02:36:11;;;;;;;7.38;4.00;;;18.20;99.90;;;;;;5077323;28;20368;-73
2022/07/07 02:38:38;;;;;;;11.90;3.47;;;18.20;99.90;;;;;;5096782;28;20078;-73
2022/07/07 02:41:05;;;;;;;7.55;3.83;;;18.10;99.90;;;;;;5098957;28;20472;-73
2022/07/07 02:43:31;;;;;;;8.52;4.03;;;18.10;99.90;;;;;;5088393;28;20025;-73
2022/07/07 02:45:57;;;;;;;7.07;3.38;;;18.10;99.90;;;;;;5091336;28;20016;-73
2022/07/07 02:48:25;;;;;;;9.27;3.35;;;18.10;99.90;;;;;;5096348;28;20042;-73
2022/07/07 02:50:52;;;;;;;9.60;4.40;;;18.10;99.90;;;;;;5097505;28;20048;-73
2022/07/07 02:53:19;;;;;;;7.30;3.95;;;18.10;99.90;;;;;;5099378;28;20089;-73
2022/07/07 02:55:46;;;;;;;8.77;3.63;;;18.00;99.90;;;;;;5091927;28;20101;-73
2022/07/07 02:58:14;;;;;;;10.45;3.45;;;18.00;99.90;;;;;;5083171;28;20016;-73
2022/07/07 03:00:41;;;;;;;10.00;4.32;;;18.00;99.90;;;;;;5083270;28;20045;-73
2022/07/07 03:03:08;;;;;;;7.50;3.55;;;18.00;99.90;;;;;;5085130;28;20489;-73
2022/07/07 03:05:34;;;;;;;8.85;3.75;;;18.00;99.90;;;;;;5086496;28;20012;-73
2022/07/07 03:08:00;;;;;;;11.82;3.92;;;17.90;99.90;;;;;;5087600;28;20040;-73
2022/07/07 03:10:26;;;;;;;9.90;3.55;;;17.90;99.90;;;;;;5092142;28;20465;-73
2022/07/07 03:12:52;;;;;;;8.88;4.03;;;17.90;99.90;;;;;;5094431;28;20020;-73
2022/07/07 03:15:19;;;;;;;9.88;3.72;;;17.90;99.90;;;;;;5094721;28;20585;-73
2022/07/07 03:17:46;;;;;;;7.47;3.92;;;17.90;99.90;;;;;;5091613;28;20055;-73
2022/07/07 03:20:14;;;;;;;6.10;3.50;;;17.80;99.90;;;;;;5096944;28;20020;-73
2022/07/07 03:22:41;;;;;;;7.55;3.92;;;17.80;99.90;;;;;;5096974;28;20388;-73
2022/07/07 03:25:08;;;;;;;10.32;3.90;;;17.80;99.90;;;;;;5088999;28;20024;-73
2022/07/07 03:27:35;;;;;;;10.77;4.15;;;17.80;99.90;;;;;;5080928;28;20008;-73
2022/07/07 03:30:02;;;;;;;9.10;4.18;;;17.80;99.90;;;;;;5081061;28;20078;-73
2022/07/07 03:32:27;;;;;;;9.43;3.90;;;17.70;99.90;;;;;;5084669;28;20361;-73
2022/07/07 03:34:53;;;;;;;8.20;4.60;;;17.70;99.90;;;;;;5082364;28;20095;-73
2022/07/07 03:37:19;;;;;;;9.15;3.63;;;17.70;99.90;;;;;;5086085;28;20051;-73
2022/07/07 03:39:45;;;;;;;10.88;4.18;;;17.70;99.90;;;;;;5084282;28;20017;-72
2022/07/07 03:42:11;;;;;;;8.43;4.47;;;17.70;99.90;;;;;;5086575;28;20476;-72
2022/07/07 03:44:36;;;;;;;14.38;4.63;;;17.70;99.90;;;;;;5090902;28;20035;-73
2022/07/07 03:47:03;;;;;;;12.13;4.70;;;17.60;99.90;;;;;;5094133;28;20012;-73
2022/07/07 03:49:29;;;;;;;5.93;4.00;;;17.60;99.90;;;;;;5093467;28;20027;-73
2022/07/07 03:51:55;;;;;;;11.73;4.45;;;17.60;99.90;;;;;;5091286;28;20127;-73
2022/07/07 03:54:21;;;;;;;9.07;4.20;;;17.60;99.90;;;;;;5096791;28;20077;-73
2022/07/07 03:56:47;;;;;;;11.63;4.75;;;17.50;99.90;;;;;;5096741;28;20020;-73
2022/07/07 03:59:13;;;;;;;14.30;4.60;;;17.50;99.90;;;;;;5088545;28;20051;-73
2022/07/07 04:01:44;;;;;;;20.35;4.88;;;17.50;99.90;;;;;;5085535;28;20036;-74
2022/07/07 04:04:11;;;;;;;8.90;4.15;;;17.50;99.90;;;;;;5096886;28;20032;-73
2022/07/07 04:06:37;;;;;;;10.27;4.18;;;17.50;99.90;;;;;;5094727;28;20019;-73
2022/07/07 04:09:03;;;;;;;7.80;4.72;;;17.50;99.90;;;;;;5081787;28;20016;-74
2022/07/07 04:11:28;;;;;;;10.32;4.60;;;17.40;99.90;;;;;;5095587;28;20032;-73
2022/07/07 04:13:54;;;;;;;12.48;4.13;;;17.50;99.90;;;;;;5094900;28;20388;-73
2022/07/07 04:16:20;;;;;;;6.57;4.13;;;17.40;99.90;;;;;;5096174;28;20529;-73
2022/07/07 04:18:46;;;;;;;8.95;5.15;;;17.40;99.90;;;;;;5097952;28;20027;-74
2022/07/07 04:21:12;;;;;;;13.23;4.82;;;17.40;99.90;;;;;;5081525;28;20082;-73
2022/07/07 04:23:38;;;;;;;11.00;5.47;;;17.40;99.90;;;;;;5080130;28;20039;-73
2022/07/07 04:26:03;;;;;;;13.70;4.38;;;17.40;99.90;;;;;;5084045;28;20012;-74
2022/07/07 04:28:30;;;;;;;11.77;4.50;;;17.40;99.90;;;;;;5080954;28;20058;-73
2022/07/07 04:30:56;;;;;;;12.93;5.10;;;17.40;99.90;;;;;;5085700;28;20021;-74
2022/07/07 04:33:22;;;;;;;9.93;4.15;;;17.30;99.90;;;;;;5084949;28;20052;-73
2022/07/07 04:35:48;;;;;;;11.00;4.35;;;17.40;99.90;;;;;;5094635;28;20028;-73
2022/07/07 04:38:14;;;;;;;12.60;4.65;;;17.40;99.90;;;;;;5088530;28;20024;-74
2022/07/07 04:40:41;;;;;;;11.15;4.95;;;17.40;99.90;;;;;;5091311;28;20020;-74
2022/07/07 04:43:07;;;;;;;13.38;4.30;;;17.40;99.90;;;;;;5093749;28;20027;-73
2022/07/07 04:45:33;;;;;;;8.85;4.40;;;17.50;99.90;;;;;;5091435;28;20020;-73
2022/07/07 04:47:59;;;;;;;12.27;4.97;;;17.50;99.90;;;;;;5096220;28;20038;-73
2022/07/07 04:50:25;;;;;;;13.95;4.75;;;17.50;99.90;;;;;;5095990;28;20061;-74
2022/07/07 04:52:52;;;;;;;11.30;5.00;;;17.50;99.90;;;;;;5086959;28;20054;-73
2022/07/07 04:55:18;;;;;;;10.25;4.60;;;17.50;99.90;;;;;;5080073;28;20481;-73
2022/07/07 04:57:45;;;;;;;15.07;4.88;;;17.50;99.90;;;;;;5080136;28;20025;-74
2022/07/07 05:00:11;;;;;;;10.60;5.22;;;17.60;99.90;;;;;;5083320;28;20403;-73
2022/07/07 05:02:37;;;;;;;14.68;5.30;;;17.60;99.90;;;;;;5080797;28;20032;-74
2022/07/07 05:05:06;;;;;;;10.55;4.60;;;17.60;99.90;;;;;;5087353;28;20433;-74
2022/07/07 05:07:32;;;;;;;8.88;4.82;;;17.70;99.90;;;;;;5084205;28;20020;-73
2022/07/07 05:09:58;;;;;;;6.22;4.30;;;17.70;99.90;;;;;;5095233;28;20024;-74
2022/07/07 05:12:24;;;;;;;7.20;4.22;;;17.70;99.90;;;;;;5088579;28;20048;-73
2022/07/07 05:14:50;;;;;;;16.25;5.03;;;17.80;99.90;;;;;;5092139;28;20020;-73
2022/07/07 05:17:16;;;;;;;14.77;5.28;;;17.80;99.90;;;;;;5092015;28;20950;-73
2022/07/07 05:19:42;;;;;;;10.02;4.95;;;17.90;99.90;;;;;;5093074;28;20052;-74
2022/07/07 05:22:08;;;;;;;10.45;5.05;;;17.90;99.90;;;;;;5095450;28;20028;-74
2022/07/07 05:24:34;;;;;;;10.60;5.45;;;17.90;99.90;;;;;;5078582;28;20089;-74
2022/07/07 05:27:01;;;;;;;8.90;4.68;;;18.00;99.90;;;;;;5078279;28;20019;-73
2022/07/07 05:29:27;;;;;;;8.05;4.75;;;18.00;99.90;;;;;;5081321;28;20028;-73
2022/07/07 05:31:53;;;;;;;10.85;4.82;;;18.00;99.90;;;;;;5078762;28;20024;-73
2022/07/07 05:34:19;;;;;;;15.15;5.65;;;18.00;99.90;;;;;;5084715;28;20453;-74
2022/07/07 05:36:45;;;;;;;10.88;4.95;;;18.10;99.90;;;;;;5082174;28;20025;-74
2022/07/07 05:39:13;;;;;;;10.55;4.32;;;18.10;99.90;;;;;;5086461;28;20186;-74
2022/07/07 05:41:40;;;;;;;10.13;4.03;;;18.20;99.90;;;;;;5084408;28;20469;-73
2022/07/07 05:44:05;;;;;;;11.60;5.32;;;18.20;99.90;;;;;;5092754;28;20022;-73
2022/07/07 05:46:31;;;;;;;14.15;6.28;;;18.20;99.90;;;;;;5093197;28;20431;-74
2022/07/07 05:48:57;;;;;;;10.80;4.68;;;18.30;99.90;;;;;;5096233;28;20448;-73
2022/07/07 05:51:23;;;;;;;13.43;5.40;;;18.40;99.90;;;;;;5089672;28;20062;-74
2022/07/07 05:53:49;;;;;;;9.85;5.03;;;18.40;99.90;;;;;;5090270;28;20522;-73
2022/07/07 05:56:15;;;;;;;11.05;5.18;;;18.40;99.90;;;;;;5088608;28;20067;-74
2022/07/07 05:58:41;;;;;;;13.35;5.35;;;18.50;99.90;;;;;;5091868;28;20058;-74
2022/07/07 06:01:06;;;;;;;13.10;4.90;;;18.60;99.90;;;;;;5094803;28;20083;-74
2022/07/07 06:03:32;;;;;;;17.65;5.30;;;18.60;99.90;;;;;;5094963;28;20028;-73
2022/07/07 06:05:58;;;;;;;10.68;4.57;;;18.60;99.90;;;;;;5096156;28;20016;-74
2022/07/07 06:08:25;;;;;;;10.65;4.55;;;18.70;99.90;;;;;;5076608;28;20388;-73
2022/07/07 06:10:51;;;;;;;11.48;4.53;;;18.70;99.90;;;;;;5078265;28;20439;-74
2022/07/07 06:13:17;;;;;;;7.47;3.33;;;18.80;99.90;;;;;;5083123;28;20028;-73
2022/07/07 06:15:43;;;;;;;11.20;4.90;;;18.80;99.90;;;;;;5091648;28;20027;-74
2022/07/07 06:18:09;;;;;;;9.82;4.97;;;18.90;99.90;;;;;;5098957;28;20038;-74
2022/07/07 06:20:35;;;;;;;11.68;4.80;;;18.90;99.90;;;;;;5084505;28;20035;-74
2022/07/07 06:23:01;;;;;;;13.43;5.63;;;19.00;99.90;;;;;;5092617;28;20035;-73
2022/07/07 06:25:27;;;;;;;10.68;4.07;;;19.10;99.90;;;;;;5088348;28;20099;-74
2022/07/07 06:27:53;;;;;;;15.00;5.20;;;19.20;99.90;;;;;;5094723;28;20411;-73
2022/07/07 06:30:19;;;;;;;12.25;5.10;;;19.20;99.90;;;;;;5092726;28;20021;-72
2022/07/07 06:32:45;;;;;;;12.50;4.63;;;19.30;99.90;;;;;;5097062;28;20031;-71
2022/07/07 06:35:12;;;;;;;9.18;4.22;;;19.30;99.90;;;;;;5096426;28;20462;-74
2022/07/07 06:37:38;;;;;;;11.27;3.97;;;19.40;99.90;;;;;;5096283;28;20039;-74
2022/07/07 06:40:04;;;;;;;15.82;4.95;;;19.50;99.90;;;;;;5092797;28;20492;-73
2022/07/07 06:42:30;;;;;;;7.90;4.40;;;19.50;99.90;;;;;;5095683;28;20047;-75
2022/07/07 06:44:56;;;;;;;14.95;4.25;;;19.60;99.90;;;;;;5098532;28;20103;-74
2022/07/07 06:47:22;;;;;;;10.40;4.53;;;19.60;99.90;;;;;;5097579;28;20123;-74
2022/07/07 06:49:48;;;;;;;7.00;3.83;;;19.60;99.90;;;;;;5095292;28;20069;-73
2022/07/07 06:52:14;;;;;;;11.23;4.30;;;19.60;99.90;;;;;;5092363;28;20420;-74
2022/07/07 06:54:40;;;;;;;9.77;4.22;;;19.60;99.90;;;;;;5090504;28;20029;-74
2022/07/07 06:57:06;;;;;;;10.50;3.92;;;19.60;99.90;;;;;;5094149;28;20119;-75
2022/07/07 06:59:33;;;;;;;10.25;4.25;;;19.60;99.90;;;;;;5097674;28;20024;-75
2022/07/07 07:01:59;;;;;;;9.70;4.07;;;19.70;99.90;;;;;;5097604;28;20023;-74
2022/07/07 07:04:25;;;;;;;7.82;4.40;;;19.70;99.90;;;;;;5098376;28;20031;-74
2022/07/07 07:06:50;;;;;;;6.72;4.30;;;19.80;99.90;;;;;;5092097;28;20016;-73
2022/07/07 07:09:16;;;;;;;8.00;3.83;;;19.90;99.90;;;;;;5080304;28;20465;-74
2022/07/07 07:11:42;;;;;;;17.60;5.13;;;19.90;99.90;;;;;;5081675;28;20020;-73
2022/07/07 07:14:08;;;;;;;17.00;5.75;;;20.00;99.90;;;;;;5082282;28;20027;-73
2022/07/07 07:16:34;;;;;;;9.80;4.20;;;20.10;99.90;;;;;;5096987;28;20031;-74
2022/07/07 07:19:00;;;;;;;9.70;4.40;;;20.20;99.90;;;;;;5084326;28;20385;-75
2022/07/07 07:21:26;;;;;;;13.23;4.63;;;20.20;99.90;;;;;;5091084;28;20028;-75
2022/07/07 07:23:52;;;;;;;10.80;3.88;;;20.30;99.90;;;;;;5095590;28;20123;-75
2022/07/07 07:26:21;;;;;;;8.15;5.43;;;20.40;99.90;;;;;;5094706;28;20028;-80
2022/07/07 07:28:47;;;;;;;9.93;3.97;;;20.40;99.90;;;;;;5096322;28;20020;-74
2022/07/07 07:31:13;;;;;;;9.25;4.75;;;20.40;99.90;;;;;;5095418;28;20024;-73
2022/07/07 07:33:39;;;;;;;7.53;4.15;;;20.50;99.90;;;;;;5096099;28;20039;-74
2022/07/07 07:36:08;;;;;;;14.43;4.90;;;20.60;99.90;;;;;;5099334;28;20024;-75
2022/07/07 07:38:37;;;;;;;7.85;4.97;;;20.60;99.90;;;;;;5081195;28;20033;-75
2022/07/07 07:41:04;;;;;;;9.80;4.95;;;20.60;99.90;;;;;;5083521;28;20030;-75
2022/07/07 07:43:30;;;;;;;12.85;4.55;;;20.70;99.90;;;;;;5086096;28;20105;-76
2022/07/07 07:45:56;;;;;;;12.63;5.85;;;20.80;99.90;;;;;;5095257;28;20020;-75
2022/07/07 07:48:22;;;;;;;12.02;5.57;;;20.80;99.90;;;;;;5096020;28;20046;-76
2022/07/07 07:50:48;;;;;;;12.50;4.80;;;20.90;99.90;;;;;;5097102;28;20071;-75
2022/07/07 07:53:14;;;;;;;14.73;5.93;;;20.90;99.90;;;;;;5085574;28;20024;-76
2022/07/07 07:55:40;;;;;;;9.25;5.57;;;20.90;99.90;;;;;;5079572;28;20070;-76
2022/07/07 07:58:06;;;;;;;10.93;5.47;;;21.00;99.90;;;;;;5080208;28;20477;-76
2022/07/07 08:00:32;;;;;;;12.20;5.95;;;21.10;99.90;;;;;;5084179;28;20024;-77
2022/07/07 08:02:58;;;;;;;8.65;5.43;;;21.20;99.90;;;;;;5096907;28;20034;-76
2022/07/07 08:05:25;;;;;;;12.60;5.43;;;21.20;99.90;;;;;;5093363;28;20020;-76
2022/07/07 08:07:51;;;;;;;7.88;5.60;;;21.30;99.90;;;;;;5092245;28;20020;-76
2022/07/07 08:10:17;;;;;;;7.07;5.28;;;21.40;99.90;;;;;;5095233;28;20026;-75
2022/07/07 08:12:44;;;;;;;12.15;4.95;;;21.40;99.90;;;;;;5085332;28;20024;-78
2022/07/07 08:15:11;;;;;;;12.98;4.85;;;21.40;99.90;;;;;;5091694;28;20020;-76
2022/07/07 08:17:37;;;;;;;5.45;4.32;;;21.50;99.90;;;;;;5091652;28;20024;-75
2022/07/07 08:20:05;;;;;;;14.77;6.45;;;21.60;99.90;;;;;;5092821;28;20116;-76
2022/07/07 08:22:31;;;;;;;7.65;4.78;;;21.60;99.90;;;;;;5092345;28;20033;-75
2022/07/07 08:24:56;;;;;;;8.98;4.18;;;21.60;99.90;;;;;;5096759;28;20020;-76
2022/07/07 08:27:22;;;;;;;8.27;5.07;;;21.70;99.90;;;;;;5096548;28;20031;-76
2022/07/07 08:29:49;;;;;;;14.52;4.55;;;21.90;99.90;;;;;;5098167;28;20027;-76
2022/07/07 08:32:15;;;;;;;12.38;5.45;;;22.10;99.90;;;;;;5084333;28;20059;-75
2022/07/07 08:34:42;;;;;;;10.23;4.75;;;22.20;99.90;;;;;;5085524;28;20020;-74
2022/07/07 08:37:09;;;;;;;7.47;4.80;;;22.40;99.90;;;;;;5085837;28;20060;-75
2022/07/07 08:39:35;;;;;;;8.13;4.93;;;22.40;99.90;;;;;;5083123;28;20028;-75
2022/07/07 08:42:01;;;;;;;7.07;5.03;;;22.40;99.90;;;;;;5083692;28;20029;-76
2022/07/07 08:44:27;;;;;;;7.30;4.68;;;22.50;99.90;;;;;;5086902;28;20503;-75
2022/07/07 08:46:53;;;;;;;7.05;5.43;;;22.70;99.90;;;;;;5086314;28;20103;-76
2022/07/07 08:49:19;;;;;;;7.22;4.80;;;22.80;99.90;;;;;;5089231;28;20078;-76
2022/07/07 08:51:46;;;;;;;6.65;4.00;;;22.90;99.90;;;;;;5088732;28;20455;-76
2022/07/07 08:54:14;;;;;;;5.68;3.78;;;22.80;99.90;;;;;;5092905;28;20102;-74
2022/07/07 08:56:41;;;;;;;14.02;3.92;;;22.90;99.90;;;;;;5090859;28;20525;-76
2022/07/07 08:59:08;;;;;;;8.20;3.95;;;23.00;99.90;;;;;;5096627;28;20452;-76
2022/07/07 09:01:35;;;;;;;7.32;3.20;;;23.00;99.90;;;;;;5092206;28;20377;-75
2022/07/07 09:04:01;;;;;;;8.07;3.25;;;23.00;99.90;;;;;;5093762;28;20062;-77
2022/07/07 09:06:27;;;;;;;6.13;3.10;;;23.10;99.90;;;;;;5095717;28;20057;-77
2022/07/07 09:08:55;;;;;;;8.02;3.58;;;23.10;99.90;;;;;;5092214;28;20419;-78
2022/07/07 09:11:39;;;;;;;10.23;3.75;;;23.30;99.90;;;;;;5088149;28;20454;-77
2022/07/07 09:14:16;;;;;;;28.48;4.90;;;23.30;99.90;;;;;;5091075;28;20099;-77
2022/07/07 09:16:42;;;;;;;9.70;3.85;;;23.40;99.90;;;;;;5091981;28;20059;-77
2022/07/07 09:19:22;;;;;;;10.40;2.63;;;23.40;99.90;;;;;;5089256;28;20027;-78
2022/07/07 09:21:49;;;;;;;6.20;2.78;;;23.50;99.90;;;;;;5094290;28;20024;-77
2022/07/07 09:24:15;;;;;;;5.80;3.17;;;23.70;99.90;;;;;;5094304;28;20035;-76
2022/07/07 09:26:46;;;;;;;11.02;3.17;;;23.80;99.90;;;;;;5097258;28;20024;-77
2022/07/07 09:29:20;;;;;;;5.20;2.10;;;23.90;99.90;;;;;;5081043;28;20046;-78
2022/07/07 09:32:03;;;;;;;8.02;2.75;;;23.90;99.90;;;;;;5087994;28;20024;-77
2022/07/07 09:34:31;;;;;;;6.10;2.97;;;23.80;99.90;;;;;;5081260;28;20047;-77
2022/07/07 09:39:49;;;;;;;4.85;2.67;;;23.90;99.90;;;;;;5082870;28;20039;-76
2022/07/07 09:42:27;;;;;;;7.88;3.40;;;23.90;99.90;;;;;;5086768;28;20465;-78
2022/07/07 09:44:55;;;;;;;7.80;2.38;;;23.90;99.70;;;;;;5084268;28;20039;-78
2022/07/07 09:47:21;;;;;;;13.98;2.53;;;24.00;99.60;;;;;;5091489;28;20102;-75
2022/07/07 09:50:17;;;;;;;5.60;2.65;;;24.00;99.20;;;;;;5092253;28;20009;-73
2022/07/07 09:52:47;;;;;;;7.90;2.70;;;24.00;99.30;;;;;;5082765;28;20097;-75
2022/07/07 09:55:13;;;;;;;7.18;3.38;;;24.20;98.00;;;;;;5096593;28;20065;-75
2022/07/07 09:57:40;;;;;;;5.22;2.28;;;24.30;98.20;;;;;;5098889;28;20022;-75
2022/07/07 10:00:07;;;;;;;5.80;2.28;;;24.40;97.70;;;;;;5100816;28;20016;-77
2022/07/07 10:02:35;;;;;;;7.88;2.17;;;24.50;97.40;;;;;;5091262;28;20020;-78
2022/07/07 10:05:01;;;;;;;7.15;1.98;;;24.60;96.80;;;;;;5089180;28;20434;-77
2022/07/07 10:07:29;;;;;;;8.52;2.35;;;24.70;96.40;;;;;;5100074;28;20067;-77
2022/07/07 10:09:58;;;;;;;8.18;2.28;;;24.70;95.80;;;;;;5098895;28;20027;-76
2022/07/07 10:12:26;;;;;;;4.70;2.40;;;24.80;95.60;;;;;;5086927;28;20024;-75
2022/07/07 10:15:03;;;;;;;8.48;2.53;;;24.90;95.50;;;;;;5091297;28;20112;-75
2022/07/07 10:17:30;;;;;;;4.65;1.90;;;25.00;95.60;;;;;;5094142;28;20013;-74
2022/07/07 10:19:59;;;;;;;3.97;2.10;;;24.90;94.10;;;;;;5098415;28;20085;-73
2022/07/07 10:22:28;;;;;;;6.28;1.85;;;24.90;95.00;;;;;;5097624;28;20103;-73
2022/07/07 10:24:56;;;;;;;6.95;2.17;;;24.90;93.40;;;;;;5100433;28;20036;-73
2022/07/07 10:27:25;;;;;;;4.95;2.05;;;25.00;93.90;;;;;;5085979;28;20100;-72
2022/07/07 10:29:53;;;;;;;5.43;2.45;;;25.20;93.90;;;;;;5087890;28;20161;-73
2022/07/07 10:32:51;;;;;;;3.63;2.22;;;25.40;92.90;;;;;;5098773;28;20078;-73
2022/07/07 10:35:18;;;;;;;5.07;2.20;;;25.30;92.90;;;;;;5086992;28;20021;-73
2022/07/07 10:37:53;;;;;;;5.22;3.15;;;25.20;92.90;;;;;;5093936;28;20066;-72
2022/07/07 10:40:19;;;;;;;9.95;2.30;;;25.20;93.50;;;;;;5086734;28;20029;-74
2022/07/07 10:42:44;;;;;;;6.40;2.22;;;25.30;93.30;;;;;;5083332;28;20100;-73
2022/07/07 10:45:11;;;;;;;4.07;1.70;;;25.50;92.60;;;;;;5083890;28;20029;-73
2022/07/07 10:47:37;;;;;;;2.40;1.60;;;25.40;91.60;;;;;;5087733;28;20031;-73
2022/07/07 10:50:20;;;;;;;5.03;1.90;;;25.30;91.50;;;;;;5081568;28;20082;-74
2022/07/07 10:52:46;;;;;;;6.28;2.05;;;25.30;92.30;;;;;;5115740;27;20119;-73
2022/07/07 10:55:12;;;;;;;5.43;2.50;;;25.40;92.60;;;;;;5081434;28;20099;-73
2022/07/07 10:57:47;;;;;;;3.25;1.88;;;25.50;92.20;;;;;;5084381;28;20033;-73
2022/07/07 11:00:15;;;;;;;9.75;2.60;;;25.60;91.90;;;;;;5081816;28;20411;-73
2022/07/07 11:02:49;;;;;;;6.80;1.80;;;25.60;92.10;;;;;;5083813;28;20710;-74
2022/07/07 11:05:15;;;;;;;3.28;2.28;;;25.70;91.50;;;;;;5081911;28;20032;-73
2022/07/07 11:08:06;;;;;;;4.82;1.70;;;25.80;92.20;;;;;;5082566;28;20043;-73
2022/07/07 11:10:55;;;;;;;7.70;2.15;;;26.00;91.20;;;;;;5082803;28;20050;-72
2022/07/07 11:13:33;;;;;;;7.60;2.75;;;26.00;90.70;;;;;;5082582;28;20036;-73
2022/07/07 11:16:12;;;;;;;5.47;2.05;;;25.90;90.70;;;;;;5082621;28;20054;-73
2022/07/07 11:18:39;;;;;;;4.63;1.60;;;26.00;90.80;;;;;;5081955;28;20569;-73
2022/07/07 11:21:06;;;;;;;4.57;2.17;;;26.10;89.30;;;;;;5084174;28;20041;-75
2022/07/07 11:23:56;;;;;;;7.55;2.00;;;26.40;90.10;;;;;;5081473;28;20098;-73
2022/07/07 11:26:25;;;;;;;3.17;1.90;;;26.50;90.10;;;;;;5080746;28;20032;-73
2022/07/07 11:28:52;;;;;;;6.57;2.25;;;26.70;89.40;;;;;;5113275;27;20047;-75
2022/07/07 11:31:19;;;;;;;4.97;1.90;;;26.70;86.80;;;;;;5080642;28;20495;-73
2022/07/07 11:33:53;;;;;;;3.58;1.70;;;26.60;88.90;;;;;;5081243;28;20031;-73
2022/07/07 11:36:22;;;;;;;5.57;1.60;;;26.60;87.90;;;;;;5082687;28;20056;-73
2022/07/07 11:38:52;;;;;;;6.35;1.92;;;26.80;86.80;;;;;;5079719;28;20036;-73
2022/07/07 11:41:18;;;;;;;6.70;1.67;;;26.60;87.20;;;;;;5080151;28;20078;-72
2022/07/07 11:43:53;;;;;;;3.13;1.83;;;26.60;86.90;;;;;;5084642;28;20032;-72
2022/07/07 11:46:23;;;;;;;5.85;2.28;;;26.60;87.20;;;;;;5082793;28;20044;-74
2022/07/07 11:48:49;;;;;;;3.80;1.95;;;26.50;86.90;;;;;;5080469;28;20356;-73
2022/07/07 11:51:15;;;;;;;6.53;1.92;;;26.60;87.20;;;;;;5097516;28;20044;-73
2022/07/07 11:53:41;;;;;;;4.22;1.40;;;26.70;87.10;;;;;;5087969;28;20495;-73
2022/07/07 11:56:07;;;;;;;3.22;1.23;;;26.90;84.70;;;;;;5079313;28;20053;-74
2022/07/07 11:58:33;;;;;;;6.00;1.45;;;27.10;82.70;;;;;;5078775;28;20430;-73
2022/07/07 12:00:59;;;;;;;9.80;1.67;;;27.10;83.10;;;;;;5083464;28;20107;-75
2022/07/07 12:03:34;;;;;;;4.28;1.50;;;27.40;82.70;;;;;;5078086;28;20125;-75
2022/07/07 12:06:01;;;;;;;4.43;1.40;;;27.30;81.00;;;;;;5078301;28;20031;-76
2022/07/07 12:08:35;;;;;;;5.18;1.63;;;27.20;82.10;;;;;;5086867;28;20012;-74
2022/07/07 12:11:02;;;;;;;5.20;2.03;;;27.10;81.60;;;;;;5079138;28;20485;-73
2022/07/07 12:13:29;;;;;;;3.55;1.70;;;26.80;81.80;;;;;;5084304;28;20028;-74
2022/07/07 12:15:57;;;;;;;14.52;1.95;;;26.70;83.70;;;;;;5086985;28;20047;-74
2022/07/07 12:18:41;;;;;;;4.38;1.33;;;26.90;82.90;;;;;;5083997;28;20879;-75
2022/07/07 12:21:12;;;;;;;3.60;1.40;;;27.10;82.00;;;;;;5093813;28;20031;-74
2022/07/07 12:23:44;;;;;;;3.60;1.35;;;27.20;80.10;;;;;;5092411;28;20033;-76
2022/07/07 12:26:20;;;;;;;2.15;1.40;;;27.30;80.90;;;;;;5080659;28;20393;-73
2022/07/07 12:28:46;;;;;;;2.08;1.20;;;27.30;80.40;;;;;;5092358;28;20070;-74
2022/07/07 12:31:22;;;;;;;4.32;1.40;;;27.30;80.70;;;;;;5097967;28;20494;-75
2022/07/07 12:33:49;;;;;;;4.13;1.42;;;27.40;79.60;;;;;;5088854;28;20031;-74
2022/07/07 12:36:18;;;;;;;1.98;1.40;;;27.40;79.80;;;;;;5079847;28;20060;-74
2022/07/07 12:38:47;;;;;;;2.55;1.27;;;27.70;80.20;;;;;;5091501;28;20020;-74
2022/07/07 12:41:25;;;;;;;5.45;1.65;;;27.80;78.60;;;;;;5097774;28;20059;-75
2022/07/07 12:43:53;;;;;;;3.17;1.63;;;27.60;78.80;;;;;;5093371;28;20385;-73
2022/07/07 12:46:21;;;;;;;3.78;1.40;;;27.70;79.40;;;;;;5095999;28;20103;-74